Time;durP1;ratioP1;P1;durP2;ratioP2;P2;SDS_P1;SDS_P2;PMS_P1;PMS_P2;Temp;Humidity;BMP_temperature;BMP_pressure;BME280_temperature;BME280_humidity;BME280_pressure;Samples;Min_cycle;Max_cycle;Signal;HPM_P1;HPM_P2
2022/03/15 00:01:04;;;;;;;0.10;0.10;;;4.70;99.90;;;;;;5092652;28;20680;-79
2022/03/15 00:03:29;;;;;;;0.13;0.13;;;4.70;99.90;;;;;;5092643;28;20204;-78
2022/03/15 00:05:55;;;;;;;1.80;1.63;;;4.70;99.90;;;;;;5091713;28;20201;-78
2022/03/15 00:08:21;;;;;;;0.20;0.20;;;4.50;99.90;;;;;;5091736;28;20614;-77
2022/03/15 00:10:48;;;;;;;0.30;0.30;;;4.40;99.90;;;;;;5091322;28;20179;-79
2022/03/15 00:13:14;;;;;;;0.33;0.30;;;4.40;99.90;;;;;;5090991;28;20745;-78
2022/03/15 00:15:42;;;;;;;1.70;1.57;;;4.40;99.90;;;;;;5090118;28;20184;-78
2022/03/15 00:18:08;;;;;;;1.33;1.23;;;4.40;99.90;;;;;;5091319;28;20225;-78
2022/03/15 00:20:34;;;;;;;1.40;1.30;;;4.40;99.90;;;;;;5091634;28;20172;-78
2022/03/15 00:23:00;;;;;;;1.47;1.33;;;4.40;99.90;;;;;;5091021;28;20582;-78
2022/03/15 00:25:26;;;;;;;0.63;0.63;;;4.40;99.90;;;;;;5091303;28;20171;-77
2022/03/15 00:27:53;;;;;;;0.70;0.70;;;4.40;99.90;;;;;;5091626;28;20172;-78
2022/03/15 00:30:20;;;;;;;0.20;0.20;;;4.40;99.90;;;;;;5091244;28;20644;-78
2022/03/15 00:32:47;;;;;;;0.53;0.53;;;4.40;99.90;;;;;;5090892;28;20207;-78
2022/03/15 00:35:16;;;;;;;0.10;0.10;;;4.30;99.90;;;;;;5091459;28;20175;-78
2022/03/15 00:37:43;;;;;;;0.10;0.10;;;4.20;99.90;;;;;;5091655;28;20168;-78
2022/03/15 00:40:09;;;;;;;0.30;0.30;;;4.10;99.90;;;;;;5091051;28;20178;-77
2022/03/15 00:42:35;;;;;;;0.93;0.73;;;4.00;99.90;;;;;;5090781;28;20284;-78
2022/03/15 00:45:02;;;;;;;0.37;0.37;;;3.90;99.90;;;;;;5089795;28;20207;-77
2022/03/15 00:47:29;;;;;;;1.57;1.40;;;4.10;99.90;;;;;;5091190;28;20170;-76
2022/03/15 00:49:54;;;;;;;2.60;2.50;;;4.00;99.90;;;;;;5089756;28;20237;-77
2022/03/15 00:52:20;;;;;;;0.20;0.20;;;4.10;99.90;;;;;;5090830;28;20229;-77
2022/03/15 00:54:45;;;;;;;0.10;0.10;;;4.00;99.90;;;;;;5090783;28;20698;-77
2022/03/15 00:57:11;;;;;;;0.70;0.70;;;3.90;99.90;;;;;;5091211;28;20172;-77
2022/03/15 00:59:37;;;;;;;0.67;0.67;;;3.90;99.90;;;;;;5090959;28;20176;-76
2022/03/15 01:02:03;;;;;;;0.50;0.50;;;4.00;99.90;;;;;;5090547;28;20203;-76
2022/03/15 01:04:28;;;;;;;1.80;0.37;;;4.10;99.90;;;;;;5090961;28;20184;-76
2022/03/15 01:06:54;;;;;;;0.10;0.10;;;4.20;99.90;;;;;;5091202;28;20168;-76
2022/03/15 01:09:19;;;;;;;0.10;0.10;;;4.20;99.90;;;;;;5089521;28;20183;-76
2022/03/15 01:11:45;;;;;;;1.00;0.50;;;4.10;99.90;;;;;;5090633;28;20171;-76
2022/03/15 01:14:11;;;;;;;0.20;0.20;;;4.00;99.90;;;;;;5093383;28;20198;-77
2022/03/15 01:16:37;;;;;;;0.93;0.93;;;3.90;99.90;;;;;;5092860;28;20175;-77
2022/03/15 01:19:05;;;;;;;1.80;1.40;;;3.80;99.90;;;;;;5093490;28;20266;-76
2022/03/15 01:21:32;;;;;;;0.63;0.63;;;3.80;99.90;;;;;;5094492;28;20171;-78
2022/03/15 01:23:57;;;;;;;0.30;0.30;;;3.70;99.90;;;;;;5094615;28;20195;-77
2022/03/15 01:26:23;;;;;;;1.13;0.60;;;3.80;99.90;;;;;;5093807;28;20697;-76
2022/03/15 01:28:48;;;;;;;0.40;0.40;;;3.80;99.90;;;;;;5094666;28;20184;-76
2022/03/15 01:31:14;;;;;;;4.90;1.60;;;3.80;99.90;;;;;;5093189;28;20600;-76
2022/03/15 01:33:39;;;;;;;0.10;0.10;;;3.80;99.90;;;;;;5094317;28;20194;-76
2022/03/15 01:36:05;;;;;;;3.70;0.83;;;3.80;99.90;;;;;;5093269;28;20229;-76
2022/03/15 01:38:34;;;;;;;3.50;2.00;;;3.80;99.90;;;;;;5095370;28;20225;-79
2022/03/15 01:40:59;;;;;;;0.83;0.83;;;3.80;99.90;;;;;;5095771;28;20218;-79
2022/03/15 01:43:25;;;;;;;1.20;1.20;;;3.80;99.90;;;;;;5095638;28;20227;-78
2022/03/15 01:45:53;;;;;;;0.67;0.43;;;3.80;99.90;;;;;;5095475;28;20179;-80
2022/03/15 01:48:20;;;;;;;0.60;0.60;;;3.80;99.90;;;;;;5094513;28;20214;-79
2022/03/15 01:50:46;;;;;;;0.13;0.13;;;3.90;99.90;;;;;;5095946;28;20322;-79
2022/03/15 01:53:14;;;;;;;0.63;0.63;;;3.80;99.90;;;;;;5095244;28;20295;-79
2022/03/15 01:55:40;;;;;;;0.57;0.57;;;3.80;99.90;;;;;;5095628;28;20176;-79
2022/03/15 01:58:05;;;;;;;0.30;0.30;;;3.80;99.90;;;;;;5095608;28;20201;-80
2022/03/15 02:00:31;;;;;;;0.13;0.13;;;3.80;99.90;;;;;;5094754;28;20257;-78
2022/03/15 02:02:57;;;;;;;2.73;2.47;;;3.70;99.90;;;;;;5093509;28;20754;-78
2022/03/15 02:05:23;;;;;;;3.90;1.77;;;3.70;99.90;;;;;;5093926;28;20194;-78
2022/03/15 02:07:48;;;;;;;0.40;0.40;;;3.70;99.90;;;;;;5093652;28;20183;-78
2022/03/15 02:10:14;;;;;;;0.10;0.10;;;3.80;99.90;;;;;;5093825;28;20176;-78
2022/03/15 02:12:40;;;;;;;2.53;2.33;;;3.70;99.90;;;;;;5110191;22;20224;-75
2022/03/15 02:15:07;;;;;;;0.03;0.03;;;3.60;99.90;;;;;;5074786;28;20184;-75
2022/03/15 02:17:33;;;;;;;0.10;0.10;;;3.60;99.90;;;;;;5074372;28;20543;-76
2022/03/15 02:20:04;;;;;;;1.20;1.10;;;3.60;99.90;;;;;;5072523;28;20184;-77
2022/03/15 02:22:30;;;;;;;0.67;0.67;;;3.60;99.90;;;;;;5073779;28;20599;-76
2022/03/15 02:24:55;;;;;;;0.10;0.10;;;3.50;99.90;;;;;;5060502;28;20168;-76
2022/03/15 02:27:23;;;;;;;0.20;0.20;;;3.50;99.90;;;;;;5054168;28;20207;-75
2022/03/15 02:29:49;;;;;;;0.10;0.10;;;3.50;99.90;;;;;;5053051;28;20181;-76
2022/03/15 02:32:15;;;;;;;1.70;1.60;;;3.50;99.90;;;;;;5051852;28;20203;-76
2022/03/15 02:34:40;;;;;;;0.10;0.10;;;3.60;99.90;;;;;;5053585;28;20179;-76
2022/03/15 02:37:06;;;;;;;1.40;1.00;;;3.60;99.90;;;;;;5053187;28;20184;-75
2022/03/15 02:39:32;;;;;;;1.30;1.20;;;3.50;99.90;;;;;;5053070;28;20173;-76
2022/03/15 02:41:57;;;;;;;0.10;0.10;;;3.50;99.90;;;;;;5052635;28;20257;-76
2022/03/15 02:44:23;;;;;;;3.73;0.97;;;3.50;99.90;;;;;;5053449;28;20197;-75
2022/03/15 02:46:51;;;;;;;0.30;0.30;;;3.60;99.90;;;;;;5053589;28;20180;-75
2022/03/15 02:49:17;;;;;;;0.47;0.47;;;3.60;99.90;;;;;;5053295;28;20181;-75
2022/03/15 02:51:43;;;;;;;0.53;0.53;;;3.70;99.90;;;;;;5052548;28;20207;-73
2022/03/15 02:54:13;;;;;;;0.10;0.10;;;3.70;99.90;;;;;;5051242;28;20625;-73
2022/03/15 02:56:42;;;;;;;14.53;2.10;;;3.80;99.90;;;;;;5051423;28;20177;-72
2022/03/15 02:59:14;;;;;;;0.47;0.40;;;3.90;99.90;;;;;;5052619;28;20179;-73
2022/03/15 03:01:44;;;;;;;0.60;0.60;;;3.90;99.90;;;;;;5051170;28;20552;-72
2022/03/15 03:04:10;;;;;;;0.30;0.30;;;4.00;99.90;;;;;;5053300;28;20696;-74
2022/03/15 03:06:36;;;;;;;2.10;1.60;;;4.00;99.90;;;;;;5053649;28;20169;-74
2022/03/15 03:09:02;;;;;;;0.37;0.37;;;4.00;99.90;;;;;;5054127;28;20169;-74
2022/03/15 03:11:28;;;;;;;0.63;0.63;;;4.10;99.90;;;;;;5053226;28;20643;-73
2022/03/15 03:14:00;;;;;;;1.53;1.13;;;4.20;99.90;;;;;;5053113;28;20223;-74
2022/03/15 03:16:28;;;;;;;0.97;0.97;;;4.20;99.90;;;;;;5053387;28;20184;-76
2022/03/15 03:18:57;;;;;;;0.77;0.77;;;4.20;99.90;;;;;;5052386;28;20513;-76
2022/03/15 03:21:27;;;;;;;0.60;0.60;;;4.20;99.90;;;;;;5052084;28;20179;-77
2022/03/15 03:23:54;;;;;;;2.80;2.57;;;4.20;99.90;;;;;;5052309;28;20652;-75
2022/03/15 03:26:23;;;;;;;5.00;1.90;;;4.10;99.90;;;;;;5051701;28;20230;-75
2022/03/15 03:28:52;;;;;;;1.50;0.77;;;4.10;99.90;;;;;;5055452;28;20541;-74
2022/03/15 03:31:18;;;;;;;2.07;1.80;;;4.00;99.90;;;;;;5050749;28;20196;-73
2022/03/15 03:33:44;;;;;;;0.30;0.30;;;4.00;99.90;;;;;;5052018;28;20205;-75
2022/03/15 03:36:10;;;;;;;0.50;0.50;;;3.90;99.90;;;;;;5051760;28;20183;-76
2022/03/15 03:38:37;;;;;;;10.90;1.47;;;3.80;99.90;;;;;;5052155;28;20238;-75
2022/03/15 03:41:04;;;;;;;2.37;2.20;;;3.90;99.90;;;;;;5051891;28;20228;-75
2022/03/15 03:43:31;;;;;;;2.40;2.17;;;4.00;99.90;;;;;;5050265;28;20580;-75
2022/03/15 03:45:57;;;;;;;0.10;0.10;;;4.10;99.90;;;;;;5051891;28;20165;-74
2022/03/15 03:48:23;;;;;;;0.93;0.93;;;4.20;99.90;;;;;;5051936;28;20173;-75
2022/03/15 03:50:50;;;;;;;2.23;2.03;;;4.20;99.90;;;;;;5051760;28;20204;-75
2022/03/15 03:53:17;;;;;;;0.20;0.20;;;4.20;99.90;;;;;;5051573;28;20201;-75
2022/03/15 03:55:45;;;;;;;0.63;0.63;;;4.30;99.90;;;;;;5051779;28;20180;-75
2022/03/15 03:58:11;;;;;;;1.50;1.20;;;4.30;99.90;;;;;;5051588;28;20211;-75
2022/03/15 04:00:37;;;;;;;1.47;1.23;;;4.30;99.90;;;;;;5051588;28;20177;-74
2022/03/15 04:03:03;;;;;;;3.40;1.53;;;4.30;99.90;;;;;;5051145;28;20212;-74
2022/03/15 04:05:30;;;;;;;0.73;0.73;;;4.30;99.90;;;;;;5050577;28;20200;-77
2022/03/15 04:07:59;;;;;;;2.60;2.50;;;4.30;99.90;;;;;;5051716;28;20623;-74
2022/03/15 04:10:25;;;;;;;1.20;1.20;;;4.30;99.90;;;;;;5051637;28;20248;-74
2022/03/15 04:12:51;;;;;;;0.30;0.30;;;4.30;99.90;;;;;;5050912;28;20343;-75
2022/03/15 04:15:17;;;;;;;3.43;1.67;;;4.30;99.90;;;;;;5051673;28;20259;-74
2022/03/15 04:17:42;;;;;;;1.40;1.40;;;4.20;99.90;;;;;;5051589;28;20644;-74
2022/03/15 04:20:08;;;;;;;1.40;1.40;;;4.20;99.90;;;;;;5050073;28;20650;-72
2022/03/15 04:22:34;;;;;;;2.50;1.50;;;4.20;99.90;;;;;;5050888;28;20209;-74
2022/03/15 04:25:00;;;;;;;2.20;2.00;;;4.20;99.90;;;;;;5051662;28;20180;-74
2022/03/15 04:27:25;;;;;;;3.27;2.97;;;4.20;99.90;;;;;;5051256;28;20177;-75
2022/03/15 04:29:51;;;;;;;2.20;1.63;;;4.20;99.90;;;;;;5051316;28;20206;-74
2022/03/15 04:32:18;;;;;;;1.60;1.50;;;4.20;99.90;;;;;;5049502;28;20181;-74
2022/03/15 04:34:43;;;;;;;5.30;3.13;;;4.20;99.90;;;;;;5051551;28;20215;-74
2022/03/15 04:37:09;;;;;;;2.77;1.07;;;4.10;99.90;;;;;;5051774;28;20196;-75
2022/03/15 04:39:35;;;;;;;2.40;1.33;;;4.10;99.90;;;;;;5051750;28;20678;-74
2022/03/15 04:42:02;;;;;;;1.80;1.30;;;4.10;99.90;;;;;;5050730;28;20185;-75
2022/03/15 04:44:27;;;;;;;1.70;1.63;;;4.10;99.90;;;;;;5051376;28;20201;-75
2022/03/15 04:46:53;;;;;;;1.03;0.70;;;4.00;99.90;;;;;;5051494;28;20754;-75
2022/03/15 04:49:18;;;;;;;2.23;1.60;;;4.00;99.90;;;;;;5055272;28;20181;-74
2022/03/15 04:51:46;;;;;;;3.83;2.43;;;4.00;99.90;;;;;;5054947;28;20743;-74
2022/03/15 04:54:12;;;;;;;2.30;2.10;;;4.00;99.90;;;;;;5055168;28;20250;-74
2022/03/15 04:56:38;;;;;;;0.20;0.20;;;4.10;99.90;;;;;;5054753;28;20181;-74
2022/03/15 04:59:04;;;;;;;2.00;1.90;;;4.10;99.90;;;;;;5055163;28;20173;-74
2022/03/15 05:01:30;;;;;;;0.60;0.60;;;4.10;99.90;;;;;;5053329;28;20201;-74
2022/03/15 05:03:55;;;;;;;2.07;1.90;;;4.10;99.90;;;;;;5053938;28;20679;-74
2022/03/15 05:06:21;;;;;;;1.00;1.00;;;4.10;99.90;;;;;;5055169;28;20173;-75
2022/03/15 05:08:48;;;;;;;0.63;0.63;;;4.20;99.90;;;;;;5055173;28;20181;-75
2022/03/15 05:11:14;;;;;;;1.00;1.00;;;4.10;99.90;;;;;;5054953;28;20172;-76
2022/03/15 05:13:44;;;;;;;1.53;1.43;;;4.20;99.90;;;;;;5053659;28;20220;-75
2022/03/15 05:16:12;;;;;;;0.90;0.90;;;4.20;99.90;;;;;;5055259;28;20693;-76
2022/03/15 05:18:40;;;;;;;0.83;0.83;;;4.30;99.90;;;;;;5053754;28;20606;-76
2022/03/15 05:21:07;;;;;;;0.93;0.90;;;4.30;99.90;;;;;;5054024;28;20656;-76
2022/03/15 05:23:33;;;;;;;1.07;1.07;;;4.30;99.90;;;;;;5055311;28;20200;-75
2022/03/15 05:25:58;;;;;;;0.70;0.40;;;4.40;99.90;;;;;;5058409;28;20192;-75
2022/03/15 05:28:24;;;;;;;0.50;0.50;;;4.40;99.90;;;;;;5057632;28;20185;-76
2022/03/15 05:30:50;;;;;;;4.50;2.70;;;4.40;99.90;;;;;;5054688;28;20169;-76
2022/03/15 05:33:16;;;;;;;3.10;0.67;;;4.40;99.90;;;;;;5054202;28;20204;-77
2022/03/15 05:35:42;;;;;;;3.60;2.10;;;4.40;99.90;;;;;;5054320;28;20180;-75
2022/03/15 05:38:07;;;;;;;0.60;0.60;;;4.50;99.90;;;;;;5070866;28;20547;-77
2022/03/15 05:40:34;;;;;;;1.00;1.00;;;4.50;99.90;;;;;;5075453;28;20544;-75
2022/03/15 05:42:59;;;;;;;2.10;2.00;;;4.50;99.90;;;;;;5074012;28;20204;-75
2022/03/15 05:45:25;;;;;;;3.87;3.37;;;4.40;99.90;;;;;;5073220;28;20180;-76
2022/03/15 05:47:52;;;;;;;1.50;1.40;;;4.40;99.90;;;;;;5074412;28;20248;-75
2022/03/15 05:50:17;;;;;;;2.50;2.30;;;4.40;99.90;;;;;;5074132;28;20181;-76
2022/03/15 05:52:43;;;;;;;1.53;1.50;;;4.40;99.90;;;;;;5073968;28;20283;-75
2022/03/15 05:55:10;;;;;;;0.57;0.57;;;4.30;99.90;;;;;;5075933;28;20180;-75
2022/03/15 05:57:36;;;;;;;0.37;0.37;;;4.30;99.90;;;;;;5075593;28;20177;-75
2022/03/15 06:00:04;;;;;;;0.10;0.10;;;4.40;99.90;;;;;;5072320;28;20191;-73
2022/03/15 06:02:29;;;;;;;1.27;1.27;;;4.40;99.90;;;;;;5057904;28;20291;-75
2022/03/15 06:04:55;;;;;;;1.23;1.23;;;4.50;99.90;;;;;;5060692;28;20203;-75
2022/03/15 06:07:20;;;;;;;2.27;2.10;;;4.50;99.90;;;;;;5052780;28;20712;-75
2022/03/15 06:09:46;;;;;;;0.40;0.40;;;4.50;99.90;;;;;;5062157;28;20169;-76
2022/03/15 06:12:11;;;;;;;20.50;1.63;;;4.50;99.90;;;;;;5055184;28;20180;-74
2022/03/15 06:14:37;;;;;;;0.77;0.77;;;4.60;99.90;;;;;;5065038;28;20192;-74
2022/03/15 06:17:04;;;;;;;2.53;1.60;;;4.60;99.90;;;;;;5062093;28;20188;-75
2022/03/15 06:19:30;;;;;;;0.53;0.53;;;4.60;99.90;;;;;;5074597;28;20267;-75
2022/03/15 06:21:55;;;;;;;1.03;1.03;;;4.70;99.90;;;;;;5063689;28;20204;-75
2022/03/15 06:24:21;;;;;;;0.30;0.30;;;4.70;99.90;;;;;;5063383;28;20204;-74
2022/03/15 06:26:47;;;;;;;0.40;0.40;;;4.80;99.90;;;;;;5065351;28;20172;-74
2022/03/15 06:29:12;;;;;;;0.20;0.20;;;4.80;99.90;;;;;;5060952;28;20722;-73
2022/03/15 06:31:38;;;;;;;1.37;1.27;;;4.90;99.90;;;;;;5061564;28;20181;-74
2022/03/15 06:34:06;;;;;;;1.17;1.17;;;4.90;99.90;;;;;;5054977;28;20193;-74
2022/03/15 06:36:34;;;;;;;1.07;0.97;;;5.00;99.90;;;;;;5061393;28;20533;-73
2022/03/15 06:38:59;;;;;;;0.73;0.73;;;5.00;99.90;;;;;;5062519;28;20646;-75
2022/03/15 06:41:25;;;;;;;2.93;1.67;;;5.00;99.90;;;;;;5061243;28;20204;-75
2022/03/15 06:43:51;;;;;;;0.33;0.33;;;5.00;99.90;;;;;;5064567;28;20276;-74
2022/03/15 06:46:16;;;;;;;2.17;0.70;;;5.00;99.90;;;;;;5066088;28;20188;-75
2022/03/15 06:48:42;;;;;;;4.70;1.23;;;5.10;99.90;;;;;;5057382;28;20185;-74
2022/03/15 06:51:08;;;;;;;1.33;1.23;;;5.10;99.90;;;;;;5060481;28;20177;-75
2022/03/15 06:53:34;;;;;;;1.97;1.23;;;5.10;99.90;;;;;;5064813;28;20609;-75
2022/03/15 06:56:00;;;;;;;1.60;1.50;;;5.10;99.90;;;;;;5053627;28;20557;-75
2022/03/15 06:58:25;;;;;;;3.10;1.83;;;5.20;99.90;;;;;;5058760;28;20244;-73
2022/03/15 07:00:52;;;;;;;6.43;2.93;;;5.20;99.90;;;;;;5063943;28;20271;-75
2022/03/15 07:03:17;;;;;;;2.47;1.87;;;5.20;99.90;;;;;;5053885;28;20201;-72
2022/03/15 07:05:44;;;;;;;0.50;0.50;;;5.30;99.90;;;;;;5059338;28;20188;-74
2022/03/15 07:08:10;;;;;;;0.63;0.63;;;5.30;99.90;;;;;;5066679;28;20544;-74
2022/03/15 07:10:35;;;;;;;3.10;1.50;;;5.40;99.90;;;;;;5057640;28;20181;-74
2022/03/15 07:13:01;;;;;;;5.30;0.90;;;5.40;99.90;;;;;;5061451;28;20222;-73
2022/03/15 07:15:27;;;;;;;1.17;1.10;;;5.40;99.90;;;;;;5065147;28;20646;-74
2022/03/15 07:17:55;;;;;;;1.07;0.83;;;5.50;99.90;;;;;;5063344;28;20248;-75
2022/03/15 07:20:23;;;;;;;1.90;1.80;;;5.60;99.90;;;;;;5060215;28;20192;-75
2022/03/15 07:22:49;;;;;;;3.00;2.73;;;5.60;99.90;;;;;;5061215;28;20208;-75
2022/03/15 07:25:14;;;;;;;2.00;1.90;;;5.60;99.90;;;;;;5054511;28;20173;-74
2022/03/15 07:27:40;;;;;;;0.50;0.50;;;5.70;99.90;;;;;;5063311;28;20209;-76
2022/03/15 07:30:07;;;;;;;1.10;1.10;;;5.80;99.90;;;;;;5065508;28;20204;-77
2022/03/15 07:32:33;;;;;;;3.20;2.50;;;5.80;99.90;;;;;;5057705;28;20197;-77
2022/03/15 07:34:58;;;;;;;25.93;2.03;;;5.80;99.90;;;;;;5056761;28;20187;-77
2022/03/15 07:37:24;;;;;;;0.93;0.93;;;5.90;99.90;;;;;;5062461;28;20529;-76
2022/03/15 07:39:49;;;;;;;1.33;1.33;;;5.90;99.90;;;;;;5054761;28;20203;-76
2022/03/15 07:42:15;;;;;;;0.67;0.57;;;6.00;99.90;;;;;;5054249;28;20201;-75
2022/03/15 07:44:42;;;;;;;0.60;0.60;;;6.00;99.90;;;;;;5060737;28;20195;-76
2022/03/15 07:47:11;;;;;;;0.77;0.77;;;6.10;99.90;;;;;;5063270;28;20164;-76
2022/03/15 07:49:36;;;;;;;1.37;1.33;;;6.10;99.90;;;;;;5047447;28;20230;-76
2022/03/15 07:52:03;;;;;;;0.63;0.63;;;6.10;99.90;;;;;;5057662;28;20642;-76
2022/03/15 07:54:28;;;;;;;1.07;0.67;;;6.10;99.90;;;;;;5051363;28;20200;-76
2022/03/15 07:56:54;;;;;;;0.20;0.20;;;6.10;99.90;;;;;;5054041;28;20579;-77
2022/03/15 07:59:20;;;;;;;2.57;1.90;;;6.20;99.90;;;;;;5065717;28;20181;-75
2022/03/15 08:01:45;;;;;;;1.67;1.57;;;6.20;99.90;;;;;;5065533;28;20169;-77
2022/03/15 08:04:11;;;;;;;7.47;3.20;;;6.20;99.90;;;;;;5059354;28;20208;-75
2022/03/15 08:06:36;;;;;;;0.70;0.70;;;6.30;99.90;;;;;;5065327;28;20176;-76
2022/03/15 08:09:03;;;;;;;4.17;1.27;;;6.30;99.90;;;;;;5056172;28;20222;-76
2022/03/15 08:11:29;;;;;;;2.17;1.27;;;6.40;99.90;;;;;;5063051;28;20168;-76
2022/03/15 08:13:54;;;;;;;0.50;0.50;;;6.50;99.90;;;;;;5076646;22;20220;-77
2022/03/15 08:16:21;;;;;;;0.83;0.83;;;6.60;99.90;;;;;;5033625;28;20209;-78
2022/03/15 08:18:48;;;;;;;2.67;1.30;;;6.60;99.90;;;;;;5033616;28;20199;-77
2022/03/15 08:21:14;;;;;;;0.73;0.73;;;6.70;99.90;;;;;;5033480;28;20181;-75
2022/03/15 08:23:39;;;;;;;0.50;0.50;;;6.80;99.90;;;;;;5033238;28;20213;-77
2022/03/15 08:26:05;;;;;;;2.57;2.37;;;6.80;99.90;;;;;;5062352;28;20173;-77
2022/03/15 08:28:30;;;;;;;0.20;0.20;;;6.90;99.90;;;;;;5032802;28;20185;-76
2022/03/15 08:30:58;;;;;;;0.20;0.20;;;6.90;99.90;;;;;;5033307;28;20180;-76
2022/03/15 08:33:24;;;;;;;0.10;0.10;;;6.90;99.90;;;;;;5050646;28;20261;-76
2022/03/15 08:35:49;;;;;;;0.87;0.83;;;7.00;99.90;;;;;;5051171;28;20185;-78
2022/03/15 08:38:15;;;;;;;0.70;0.70;;;7.00;99.90;;;;;;5051250;28;20189;-77
2022/03/15 08:40:40;;;;;;;1.13;1.10;;;7.10;99.90;;;;;;5057828;28;20216;-78
2022/03/15 08:43:06;;;;;;;0.30;0.30;;;7.20;99.90;;;;;;5051158;28;20216;-77
2022/03/15 08:45:32;;;;;;;0.40;0.40;;;7.20;99.90;;;;;;5033687;28;20205;-78
2022/03/15 08:47:58;;;;;;;1.40;1.30;;;7.40;99.90;;;;;;5051909;28;20173;-77
2022/03/15 08:50:23;;;;;;;5.87;1.40;;;7.40;99.90;;;;;;5051843;28;20177;-77
2022/03/15 08:52:49;;;;;;;0.83;0.83;;;7.40;99.90;;;;;;5050949;28;20181;-77
2022/03/15 08:55:15;;;;;;;2.50;1.67;;;7.50;99.90;;;;;;5051725;28;20260;-77
2022/03/15 08:57:41;;;;;;;0.33;0.33;;;7.60;99.90;;;;;;5051463;28;20181;-76
2022/03/15 09:00:10;;;;;;;0.67;0.67;;;7.70;99.90;;;;;;5033065;28;20541;-77
2022/03/15 09:02:35;;;;;;;1.10;1.00;;;7.70;99.90;;;;;;5049971;28;20197;-76
2022/03/15 09:05:01;;;;;;;1.03;0.93;;;7.80;99.90;;;;;;5036092;28;20254;-77
2022/03/15 09:07:28;;;;;;;1.73;1.63;;;7.80;99.90;;;;;;5054459;28;20714;-76
2022/03/15 09:09:54;;;;;;;0.90;0.70;;;7.90;99.90;;;;;;5050609;28;20220;-76
2022/03/15 09:12:20;;;;;;;0.30;0.30;;;7.90;99.90;;;;;;5032425;28;20568;-76
2022/03/15 09:14:46;;;;;;;0.20;0.20;;;7.90;99.90;;;;;;5050997;28;20704;-77
2022/03/15 09:17:12;;;;;;;3.30;2.00;;;7.90;99.90;;;;;;5031631;28;20405;-76
2022/03/15 09:19:40;;;;;;;17.83;2.43;;;7.90;99.90;;;;;;5032730;28;20187;-77
2022/03/15 09:22:07;;;;;;;3.80;2.00;;;7.90;99.90;;;;;;5031985;28;20730;-76
2022/03/15 09:24:34;;;;;;;0.93;0.93;;;7.90;99.90;;;;;;5050538;28;20196;-76
2022/03/15 09:26:59;;;;;;;1.83;1.73;;;7.90;99.90;;;;;;5032831;28;20774;-76
2022/03/15 09:29:25;;;;;;;0.90;0.90;;;8.00;99.90;;;;;;5050397;28;20252;-76
2022/03/15 09:31:50;;;;;;;0.73;0.60;;;8.00;99.90;;;;;;5049728;28;20169;-76
2022/03/15 09:34:17;;;;;;;0.47;0.47;;;8.00;99.90;;;;;;5050872;28;20834;-76
2022/03/15 09:36:44;;;;;;;0.43;0.43;;;8.00;99.90;;;;;;5054431;28;20180;-77
2022/03/15 09:39:10;;;;;;;0.33;0.33;;;8.00;99.90;;;;;;5053569;28;20192;-76
2022/03/15 09:41:39;;;;;;;0.30;0.30;;;8.10;99.90;;;;;;5053684;28;20656;-76
2022/03/15 09:44:10;;;;;;;1.37;1.27;;;8.10;99.90;;;;;;5036100;28;20212;-75
2022/03/15 09:47:00;;;;;;;0.60;0.60;;;8.10;99.90;;;;;;5053866;28;20187;-76
2022/03/15 09:49:27;;;;;;;0.63;0.37;;;8.00;99.90;;;;;;5054268;28;20759;-77
2022/03/15 09:51:55;;;;;;;1.60;0.87;;;8.10;99.90;;;;;;5053715;28;20174;-75
2022/03/15 09:54:22;;;;;;;0.83;0.83;;;8.20;99.90;;;;;;5035830;28;20204;-76
2022/03/15 09:56:49;;;;;;;1.30;1.30;;;8.10;99.90;;;;;;5053768;28;20172;-76
2022/03/15 09:59:20;;;;;;;1.13;1.03;;;8.10;99.90;;;;;;5053668;28;20616;-76
2022/03/15 10:01:51;;;;;;;0.43;0.43;;;8.20;99.90;;;;;;5035670;28;20649;-76
2022/03/15 10:04:20;;;;;;;0.80;0.67;;;8.20;99.90;;;;;;5053360;28;20236;-76
2022/03/15 10:06:47;;;;;;;0.20;0.20;;;8.20;99.90;;;;;;5053641;28;20177;-76
2022/03/15 10:09:13;;;;;;;0.97;0.70;;;8.30;99.90;;;;;;5053450;28;20516;-77
2022/03/15 10:11:39;;;;;;;2.67;2.23;;;8.40;99.90;;;;;;5051717;28;20252;-76
2022/03/15 10:14:05;;;;;;;1.53;1.43;;;8.40;99.90;;;;;;5057080;28;20300;-75
2022/03/15 10:16:31;;;;;;;18.77;2.53;;;8.40;99.90;;;;;;5052921;28;20260;-76
2022/03/15 10:18:58;;;;;;;4.33;2.63;;;8.50;99.90;;;;;;5052993;28;20191;-77
2022/03/15 10:21:27;;;;;;;1.70;1.10;;;8.50;99.90;;;;;;5053032;28;20250;-76
2022/03/15 10:23:54;;;;;;;1.33;1.30;;;8.60;99.90;;;;;;5052979;28;20200;-77
2022/03/15 10:26:27;;;;;;;0.20;0.20;;;8.60;99.90;;;;;;5035251;28;20294;-76
2022/03/15 10:28:54;;;;;;;0.30;0.30;;;8.60;99.90;;;;;;5035043;28;20268;-75
2022/03/15 10:31:24;;;;;;;2.27;2.03;;;8.60;99.90;;;;;;5052852;28;20358;-77
2022/03/15 10:33:52;;;;;;;0.50;0.50;;;8.60;99.90;;;;;;5052917;28;20212;-77
2022/03/15 10:36:19;;;;;;;1.03;0.97;;;8.60;99.90;;;;;;5054032;28;20192;-76
2022/03/15 10:38:46;;;;;;;5.43;2.20;;;8.70;99.90;;;;;;5053030;28;20184;-76
2022/03/15 10:41:14;;;;;;;0.87;0.87;;;8.70;99.90;;;;;;5054214;28;20271;-76
2022/03/15 10:43:41;;;;;;;1.40;1.30;;;8.60;99.90;;;;;;5039238;28;20205;-75
2022/03/15 10:46:10;;;;;;;6.47;2.33;;;8.60;99.90;;;;;;5052289;28;20176;-76
2022/03/15 10:48:36;;;;;;;0.50;0.50;;;8.60;99.90;;;;;;5052204;28;20169;-76
2022/03/15 10:51:12;;;;;;;1.07;1.07;;;8.60;99.90;;;;;;5052011;28;20605;-75
2022/03/15 10:53:41;;;;;;;0.70;0.70;;;8.60;99.90;;;;;;5031629;28;20695;-75
2022/03/15 10:56:18;;;;;;;1.70;1.60;;;8.60;99.90;;;;;;5036379;28;20273;-76
2022/03/15 10:59:00;;;;;;;0.70;0.70;;;8.60;99.90;;;;;;5052355;28;20177;-76
2022/03/15 11:01:28;;;;;;;1.20;1.10;;;8.50;99.90;;;;;;5048795;28;20189;-76
2022/03/15 11:04:06;;;;;;;3.30;1.57;;;8.50;99.90;;;;;;5053625;28;20691;-76
2022/03/15 11:06:46;;;;;;;0.40;0.40;;;8.60;99.90;;;;;;5042404;28;20208;-75
2022/03/15 11:09:18;;;;;;;4.37;2.30;;;8.60;99.90;;;;;;5043861;28;20176;-75
2022/03/15 11:11:46;;;;;;;4.00;1.30;;;8.60;99.90;;;;;;5044259;28;20177;-75
2022/03/15 11:14:13;;;;;;;0.70;0.70;;;8.60;99.90;;;;;;5029327;28;20306;-75
2022/03/15 11:16:42;;;;;;;1.70;0.97;;;8.70;99.90;;;;;;5042179;28;20212;-75
2022/03/15 11:19:11;;;;;;;1.07;0.97;;;8.60;99.90;;;;;;5045982;28;20192;-75
2022/03/15 11:21:39;;;;;;;0.77;0.77;;;8.70;99.90;;;;;;5030986;28;20189;-75
2022/03/15 11:24:11;;;;;;;1.37;1.27;;;8.60;99.90;;;;;;5050135;28;20243;-75
2022/03/15 11:26:44;;;;;;;2.27;1.53;;;8.60;99.90;;;;;;5032530;28;20582;-77
2022/03/15 11:29:11;;;;;;;3.63;2.33;;;8.60;99.90;;;;;;5054931;28;20218;-76
2022/03/15 11:31:38;;;;;;;2.33;1.60;;;8.50;99.90;;;;;;5046142;28;20189;-76
2022/03/15 11:34:05;;;;;;;0.30;0.30;;;8.50;99.90;;;;;;5032048;28;20205;-77
2022/03/15 11:36:32;;;;;;;2.33;1.53;;;8.50;99.90;;;;;;5048732;28;20243;-77
2022/03/15 11:38:58;;;;;;;0.50;0.50;;;8.50;99.90;;;;;;5046805;28;20180;-76
2022/03/15 11:41:25;;;;;;;1.03;1.03;;;8.50;99.90;;;;;;5048628;28;20274;-76
2022/03/15 11:44:19;;;;;;;0.47;0.47;;;8.60;99.90;;;;;;5046671;28;20642;-77
2022/03/15 11:46:54;;;;;;;2.60;2.40;;;8.70;99.90;;;;;;5044747;28;20244;-77
2022/03/15 11:49:29;;;;;;;8.80;3.30;;;8.70;99.90;;;;;;5031632;28;20307;-77
2022/03/15 11:52:26;;;;;;;0.30;0.30;;;8.80;99.90;;;;;;5043108;28;20183;-76
2022/03/15 11:55:18;;;;;;;1.90;1.80;;;8.80;99.90;;;;;;5003966;28;20243;-76
2022/03/15 11:57:59;;;;;;;1.93;1.30;;;8.90;99.90;;;;;;5033148;28;20261;-75
2022/03/15 12:00:36;;;;;;;0.60;0.60;;;8.90;99.90;;;;;;5044578;28;20178;-77
2022/03/15 12:03:06;;;;;;;1.23;1.13;;;8.80;99.90;;;;;;5044693;28;20204;-77
2022/03/15 12:05:44;;;;;;;2.30;2.20;;;8.80;99.90;;;;;;5044286;28;20229;-76
2022/03/15 12:08:22;;;;;;;2.57;1.97;;;8.80;99.90;;;;;;5033639;28;20173;-77
2022/03/15 12:10:52;;;;;;;1.00;1.00;;;8.80;99.90;;;;;;5050719;28;20521;-77
2022/03/15 12:13:20;;;;;;;0.17;0.17;;;8.80;99.90;;;;;;5041140;28;20220;-76
2022/03/15 12:15:48;;;;;;;0.57;0.57;;;8.90;99.90;;;;;;5051030;28;20176;-77
2022/03/15 12:21:00;;;;;;;2.67;2.30;;;9.00;99.90;;;;;;5050721;28;20176;-78
2022/03/15 12:23:29;;;;;;;1.37;0.63;;;8.90;99.90;;;;;;5050467;28;20713;-78
2022/03/15 12:25:56;;;;;;;0.13;0.13;;;9.00;99.90;;;;;;5032228;28;20311;-77
2022/03/15 12:28:31;;;;;;;0.77;0.77;;;9.00;99.90;;;;;;5050824;28;20747;-76
2022/03/15 12:31:08;;;;;;;0.57;0.57;;;9.00;99.90;;;;;;5032751;28;20222;-76
2022/03/15 12:33:34;;;;;;;1.73;1.60;;;9.00;99.90;;;;;;5050743;28;20209;-77
2022/03/15 12:36:09;;;;;;;0.30;0.30;;;9.10;99.90;;;;;;5050544;28;20216;-76
2022/03/15 12:38:39;;;;;;;1.13;1.13;;;9.10;99.90;;;;;;5032889;28;20647;-78
2022/03/15 12:41:05;;;;;;;1.87;1.53;;;9.10;99.90;;;;;;5050251;28;20195;-77
2022/03/15 12:43:31;;;;;;;1.27;1.17;;;9.20;99.90;;;;;;5032390;28;20213;-77
2022/03/15 12:46:03;;;;;;;0.50;0.50;;;9.30;99.90;;;;;;5032471;28;20525;-78
2022/03/15 12:48:42;;;;;;;0.60;0.60;;;9.40;99.90;;;;;;5032756;28;20273;-79
2022/03/15 12:51:17;;;;;;;3.30;1.07;;;9.30;99.90;;;;;;5050385;28;20217;-78
2022/03/15 12:53:48;;;;;;;2.30;1.40;;;9.30;99.90;;;;;;5050801;28;20608;-79
2022/03/15 12:56:14;;;;;;;0.97;0.60;;;9.20;99.90;;;;;;5050628;28;20191;-78
2022/03/15 12:58:40;;;;;;;3.33;1.20;;;9.20;99.90;;;;;;5032644;28;20228;-78
2022/03/15 13:01:10;;;;;;;2.07;1.13;;;9.30;99.90;;;;;;5050589;28;20584;-78